American Canyon, California
Current Conditions -  °F | °C
As of 6:54 PM on Wednesday 22 Oct 2014 (Local Time) from KAPC Reporting Station
Clear Clear  
Wind Chill: 18°   Ceiling: Unl
Heat Index: 18°   Visibility: 10mi
Dew Point: 13°   Wind: 16mph
Humidity: 75%   Direction: 280°W
Pressure: 30.01"   Gusts: NA
Location:  38.17°N, 122.25°W
Report Text: KAPC 230154Z AUTO 28014KT 10SM CLR 18/13 A3001 RMK AO2 SLP155 T01780133
Loading
Personal Weather Stations






























Interactive Weather Map
Tropical Storm Tracking
New forecast layout! Learn more

10-Day Weather Forecast

Advertisements
Track Severe Weather on mobile